sensor_id;sensor_type;location;lat;lon;timestamp;temperature;humidity
4374;DHT22;2201;51.100;6.814;2023-01-28T00:01:25;3.50;98.20
4374;DHT22;2201;51.100;6.814;2023-01-28T00:03:54;3.50;98.20
4374;DHT22;2201;51.100;6.814;2023-01-28T00:06:22;3.40;98.20
4374;DHT22;2201;51.100;6.814;2023-01-28T00:08:49;3.30;98.20
4374;DHT22;2201;51.100;6.814;2023-01-28T00:11:16;3.20;98.20
4374;DHT22;2201;51.100;6.814;2023-01-28T00:13:43;3.20;98.20
4374;DHT22;2201;51.100;6.814;2023-01-28T00:16:11;3.10;98.20
4374;DHT22;2201;51.100;6.814;2023-01-28T00:18:38;3.00;98.20
4374;DHT22;2201;51.100;6.814;2023-01-28T00:21:06;3.00;98.20
4374;DHT22;2201;51.100;6.814;2023-01-28T00:23:37;3.00;98.20
4374;DHT22;2201;51.100;6.814;2023-01-28T00:26:06;2.90;98.20
4374;DHT22;2201;51.100;6.814;2023-01-28T00:28:33;2.80;98.20
4374;DHT22;2201;51.100;6.814;2023-01-28T00:31:05;2.80;98.20
4374;DHT22;2201;51.100;6.814;2023-01-28T00:33:33;2.70;98.20
4374;DHT22;2201;51.100;6.814;2023-01-28T00:36:00;2.70;98.20
4374;DHT22;2201;51.100;6.814;2023-01-28T00:38:28;2.60;98.20
4374;DHT22;2201;51.100;6.814;2023-01-28T00:41:06;2.60;98.20
4374;DHT22;2201;51.100;6.814;2023-01-28T00:43:33;2.60;98.20
4374;DHT22;2201;51.100;6.814;2023-01-28T00:46:00;2.60;98.20
4374;DHT22;2201;51.100;6.814;2023-01-28T00:48:27;2.60;98.20
4374;DHT22;2201;51.100;6.814;2023-01-28T00:50:54;2.60;98.20
4374;DHT22;2201;51.100;6.814;2023-01-28T00:53:22;2.60;98.20
4374;DHT22;2201;51.100;6.814;2023-01-28T00:55:49;2.60;98.20
4374;DHT22;2201;51.100;6.814;2023-01-28T00:58:18;2.60;98.20
4374;DHT22;2201;51.100;6.814;2023-01-28T01:00:45;2.60;98.20
4374;DHT22;2201;51.100;6.814;2023-01-28T01:03:12;2.60;98.20
4374;DHT22;2201;51.100;6.814;2023-01-28T01:05:39;2.60;98.20
4374;DHT22;2201;51.100;6.814;2023-01-28T01:08:06;2.60;98.20
4374;DHT22;2201;51.100;6.814;2023-01-28T01:10:34;2.70;98.20
4374;DHT22;2201;51.100;6.814;2023-01-28T01:13:04;2.70;98.20
4374;DHT22;2201;51.100;6.814;2023-01-28T01:15:32;2.70;98.20
4374;DHT22;2201;51.100;6.814;2023-01-28T01:17:59;2.70;98.20
4374;DHT22;2201;51.100;6.814;2023-01-28T01:20:28;2.70;98.20
4374;DHT22;2201;51.100;6.814;2023-01-28T01:23:04;2.60;98.20
4374;DHT22;2201;51.100;6.814;2023-01-28T01:25:31;2.60;98.20
4374;DHT22;2201;51.100;6.814;2023-01-28T01:28:01;2.60;98.20
4374;DHT22;2201;51.100;6.814;2023-01-28T01:30:28;2.50;98.20
4374;DHT22;2201;51.100;6.814;2023-01-28T01:32:56;2.50;98.20
4374;DHT22;2201;51.100;6.814;2023-01-28T01:35:24;2.50;98.20
4374;DHT22;2201;51.100;6.814;2023-01-28T01:37:51;2.50;98.20
4374;DHT22;2201;51.100;6.814;2023-01-28T01:40:18;2.40;98.20
4374;DHT22;2201;51.100;6.814;2023-01-28T01:42:46;2.50;98.20
4374;DHT22;2201;51.100;6.814;2023-01-28T01:45:13;2.50;98.20
4374;DHT22;2201;51.100;6.814;2023-01-28T01:47:45;2.50;98.20
4374;DHT22;2201;51.100;6.814;2023-01-28T01:50:22;2.50;98.20
4374;DHT22;2201;51.100;6.814;2023-01-28T01:52:55;2.50;98.20
4374;DHT22;2201;51.100;6.814;2023-01-28T01:55:27;2.40;98.20
4374;DHT22;2201;51.100;6.814;2023-01-28T01:57:57;2.40;98.20
4374;DHT22;2201;51.100;6.814;2023-01-28T02:00:27;2.40;98.20
4374;DHT22;2201;51.100;6.814;2023-01-28T02:02:53;2.40;98.20
4374;DHT22;2201;51.100;6.814;2023-01-28T02:05:23;2.40;98.20
4374;DHT22;2201;51.100;6.814;2023-01-28T02:07:51;2.40;98.20
4374;DHT22;2201;51.100;6.814;2023-01-28T02:10:42;2.40;98.20
4374;DHT22;2201;51.100;6.814;2023-01-28T02:13:10;2.40;98.20
4374;DHT22;2201;51.100;6.814;2023-01-28T02:15:37;2.40;98.20
4374;DHT22;2201;51.100;6.814;2023-01-28T02:18:04;2.40;98.20
4374;DHT22;2201;51.100;6.814;2023-01-28T02:20:45;2.40;98.20
4374;DHT22;2201;51.100;6.814;2023-01-28T02:23:35;2.40;98.20
4374;DHT22;2201;51.100;6.814;2023-01-28T02:29:14;2.40;98.20
4374;DHT22;2201;51.100;6.814;2023-01-28T02:31:51;2.40;98.20
4374;DHT22;2201;51.100;6.814;2023-01-28T02:34:25;2.40;98.20
4374;DHT22;2201;51.100;6.814;2023-01-28T02:36:58;2.40;98.20
4374;DHT22;2201;51.100;6.814;2023-01-28T02:39:35;2.40;98.20
4374;DHT22;2201;51.100;6.814;2023-01-28T02:42:11;2.50;98.20
4374;DHT22;2201;51.100;6.814;2023-01-28T02:44:42;2.50;98.20
4374;DHT22;2201;51.100;6.814;2023-01-28T02:47:10;2.50;98.20
4374;DHT22;2201;51.100;6.814;2023-01-28T02:49:56;2.50;98.20
4374;DHT22;2201;51.100;6.814;2023-01-28T02:52:43;2.50;98.20
4374;DHT22;2201;51.100;6.814;2023-01-28T02:55:37;2.50;98.20
4374;DHT22;2201;51.100;6.814;2023-01-28T02:58:10;2.50;98.20
4374;DHT22;2201;51.100;6.814;2023-01-28T03:00:49;2.50;98.20
4374;DHT22;2201;51.100;6.814;2023-01-28T03:03:26;2.50;98.20
4374;DHT22;2201;51.100;6.814;2023-01-28T03:05:56;2.50;98.20
4374;DHT22;2201;51.100;6.814;2023-01-28T03:08:36;2.50;98.20
4374;DHT22;2201;51.100;6.814;2023-01-28T03:11:22;2.50;98.20
4374;DHT22;2201;51.100;6.814;2023-01-28T03:14:08;2.60;98.20
4374;DHT22;2201;51.100;6.814;2023-01-28T03:17:00;2.60;98.20
4374;DHT22;2201;51.100;6.814;2023-01-28T03:19:46;2.60;98.20
4374;DHT22;2201;51.100;6.814;2023-01-28T03:22:32;2.60;98.20
4374;DHT22;2201;51.100;6.814;2023-01-28T03:25:19;2.60;98.20
4374;DHT22;2201;51.100;6.814;2023-01-28T03:28:09;2.60;98.20
4374;DHT22;2201;51.100;6.814;2023-01-28T03:31:01;2.60;98.20
4374;DHT22;2201;51.100;6.814;2023-01-28T03:33:48;2.60;98.20
4374;DHT22;2201;51.100;6.814;2023-01-28T03:36:34;2.60;98.20
4374;DHT22;2201;51.100;6.814;2023-01-28T03:39:15;2.60;98.20
4374;DHT22;2201;51.100;6.814;2023-01-28T03:41:54;2.60;98.20
4374;DHT22;2201;51.100;6.814;2023-01-28T03:44:22;2.70;98.20
4374;DHT22;2201;51.100;6.814;2023-01-28T03:47:07;2.70;98.20
4374;DHT22;2201;51.100;6.814;2023-01-28T03:49:38;2.70;98.20
4374;DHT22;2201;51.100;6.814;2023-01-28T03:52:05;2.60;98.20
4374;DHT22;2201;51.100;6.814;2023-01-28T03:54:34;2.70;98.20
4374;DHT22;2201;51.100;6.814;2023-01-28T03:57:07;2.70;98.20
4374;DHT22;2201;51.100;6.814;2023-01-28T03:59:35;2.60;98.20
4374;DHT22;2201;51.100;6.814;2023-01-28T04:02:03;2.60;98.20
4374;DHT22;2201;51.100;6.814;2023-01-28T04:04:30;2.60;98.20
4374;DHT22;2201;51.100;6.814;2023-01-28T04:06:59;2.60;98.20
4374;DHT22;2201;51.100;6.814;2023-01-28T04:09:26;2.60;98.20
4374;DHT22;2201;51.100;6.814;2023-01-28T04:11:54;2.60;98.20
4374;DHT22;2201;51.100;6.814;2023-01-28T04:14:21;2.60;98.20
4374;DHT22;2201;51.100;6.814;2023-01-28T04:16:48;2.60;98.20
4374;DHT22;2201;51.100;6.814;2023-01-28T04:19:16;2.60;98.20
4374;DHT22;2201;51.100;6.814;2023-01-28T04:21:44;2.60;98.20
4374;DHT22;2201;51.100;6.814;2023-01-28T04:24:13;2.60;98.20
4374;DHT22;2201;51.100;6.814;2023-01-28T04:26:43;2.60;98.20
4374;DHT22;2201;51.100;6.814;2023-01-28T04:29:10;2.60;98.20
4374;DHT22;2201;51.100;6.814;2023-01-28T04:31:37;2.50;98.20
4374;DHT22;2201;51.100;6.814;2023-01-28T04:34:05;2.50;98.20
4374;DHT22;2201;51.100;6.814;2023-01-28T04:36:35;2.50;98.20
4374;DHT22;2201;51.100;6.814;2023-01-28T04:39:02;2.50;98.20
4374;DHT22;2201;51.100;6.814;2023-01-28T04:41:31;2.50;98.20
4374;DHT22;2201;51.100;6.814;2023-01-28T04:43:58;2.50;98.20
4374;DHT22;2201;51.100;6.814;2023-01-28T04:46:25;2.50;98.20
4374;DHT22;2201;51.100;6.814;2023-01-28T04:48:52;2.50;98.20
4374;DHT22;2201;51.100;6.814;2023-01-28T04:51:20;2.50;98.20
4374;DHT22;2201;51.100;6.814;2023-01-28T04:53:47;2.50;98.20
4374;DHT22;2201;51.100;6.814;2023-01-28T04:56:14;2.50;98.20
4374;DHT22;2201;51.100;6.814;2023-01-28T04:58:44;2.50;98.20
4374;DHT22;2201;51.100;6.814;2023-01-28T05:01:11;2.50;98.20
4374;DHT22;2201;51.100;6.814;2023-01-28T05:03:38;2.50;98.20
4374;DHT22;2201;51.100;6.814;2023-01-28T05:06:06;2.50;98.20
4374;DHT22;2201;51.100;6.814;2023-01-28T05:08:33;2.50;98.20
4374;DHT22;2201;51.100;6.814;2023-01-28T05:11:00;2.50;98.20
4374;DHT22;2201;51.100;6.814;2023-01-28T05:13:27;2.40;98.20
4374;DHT22;2201;51.100;6.814;2023-01-28T05:15:56;2.40;98.20
4374;DHT22;2201;51.100;6.814;2023-01-28T05:18:23;2.40;98.20
4374;DHT22;2201;51.100;6.814;2023-01-28T05:20:50;2.40;98.20
4374;DHT22;2201;51.100;6.814;2023-01-28T05:23:17;2.40;98.20
4374;DHT22;2201;51.100;6.814;2023-01-28T05:25:44;2.40;98.20
4374;DHT22;2201;51.100;6.814;2023-01-28T05:28:11;2.40;98.20
4374;DHT22;2201;51.100;6.814;2023-01-28T05:30:38;2.30;98.20
4374;DHT22;2201;51.100;6.814;2023-01-28T05:33:07;2.30;98.20
4374;DHT22;2201;51.100;6.814;2023-01-28T05:35:34;2.40;98.20
4374;DHT22;2201;51.100;6.814;2023-01-28T05:38:02;2.40;98.20
4374;DHT22;2201;51.100;6.814;2023-01-28T05:40:29;2.40;98.20
4374;DHT22;2201;51.100;6.814;2023-01-28T05:42:56;2.30;98.20
4374;DHT22;2201;51.100;6.814;2023-01-28T05:45:23;2.30;98.20
4374;DHT22;2201;51.100;6.814;2023-01-28T07:30:18;2.20;98.20
4374;DHT22;2201;51.100;6.814;2023-01-28T07:32:46;2.10;98.20
4374;DHT22;2201;51.100;6.814;2023-01-28T07:35:13;2.10;98.20
4374;DHT22;2201;51.100;6.814;2023-01-28T07:37:58;2.10;98.20
4374;DHT22;2201;51.100;6.814;2023-01-28T07:40:26;2.10;98.20
4374;DHT22;2201;51.100;6.814;2023-01-28T07:42:54;2.10;98.20
4374;DHT22;2201;51.100;6.814;2023-01-28T07:45:23;2.10;98.20
4374;DHT22;2201;51.100;6.814;2023-01-28T07:47:55;2.10;98.20
4374;DHT22;2201;51.100;6.814;2023-01-28T07:50:23;2.10;98.20
4374;DHT22;2201;51.100;6.814;2023-01-28T07:52:50;2.10;98.20
4374;DHT22;2201;51.100;6.814;2023-01-28T07:55:18;2.10;98.20
4374;DHT22;2201;51.100;6.814;2023-01-28T07:57:49;2.10;98.20
4374;DHT22;2201;51.100;6.814;2023-01-28T08:00:17;2.20;98.20
4374;DHT22;2201;51.100;6.814;2023-01-28T08:02:46;2.20;98.20
4374;DHT22;2201;51.100;6.814;2023-01-28T08:05:18;2.20;98.20
4374;DHT22;2201;51.100;6.814;2023-01-28T08:07:46;2.20;98.20
4374;DHT22;2201;51.100;6.814;2023-01-28T08:10:14;2.20;98.20
4374;DHT22;2201;51.100;6.814;2023-01-28T08:12:51;2.20;98.20
4374;DHT22;2201;51.100;6.814;2023-01-28T08:15:18;2.20;98.20
4374;DHT22;2201;51.100;6.814;2023-01-28T08:17:47;2.20;98.20
4374;DHT22;2201;51.100;6.814;2023-01-28T08:51:26;2.40;98.20
4374;DHT22;2201;51.100;6.814;2023-01-28T08:53:53;2.50;98.20
4374;DHT22;2201;51.100;6.814;2023-01-28T08:56:21;2.50;98.20
4374;DHT22;2201;51.100;6.814;2023-01-28T08:58:49;2.50;98.20
4374;DHT22;2201;51.100;6.814;2023-01-28T09:01:17;2.50;98.20
4374;DHT22;2201;51.100;6.814;2023-01-28T09:03:45;2.60;98.20
4374;DHT22;2201;51.100;6.814;2023-01-28T09:06:13;2.60;98.20
4374;DHT22;2201;51.100;6.814;2023-01-28T09:08:42;2.60;98.20
4374;DHT22;2201;51.100;6.814;2023-01-28T09:11:09;2.60;98.20
4374;DHT22;2201;51.100;6.814;2023-01-28T09:13:37;2.60;98.20
4374;DHT22;2201;51.100;6.814;2023-01-28T09:16:06;2.60;98.20
4374;DHT22;2201;51.100;6.814;2023-01-28T09:18:34;2.60;98.20
4374;DHT22;2201;51.100;6.814;2023-01-28T09:21:04;2.70;98.20
4374;DHT22;2201;51.100;6.814;2023-01-28T09:23:33;2.70;98.20
4374;DHT22;2201;51.100;6.814;2023-01-28T09:26:05;2.60;98.20
4374;DHT22;2201;51.100;6.814;2023-01-28T09:28:34;2.60;98.20
4374;DHT22;2201;51.100;6.814;2023-01-28T09:31:05;2.60;98.20
4374;DHT22;2201;51.100;6.814;2023-01-28T09:33:36;2.70;98.20
4374;DHT22;2201;51.100;6.814;2023-01-28T09:36:05;2.70;98.20
4374;DHT22;2201;51.100;6.814;2023-01-28T09:38:36;2.70;98.20
4374;DHT22;2201;51.100;6.814;2023-01-28T09:44:05;2.70;98.20
4374;DHT22;2201;51.100;6.814;2023-01-28T09:46:39;2.70;98.20
4374;DHT22;2201;51.100;6.814;2023-01-28T09:49:16;2.70;98.20
4374;DHT22;2201;51.100;6.814;2023-01-28T09:51:48;2.70;98.20
4374;DHT22;2201;51.100;6.814;2023-01-28T09:54:26;2.70;98.20
4374;DHT22;2201;51.100;6.814;2023-01-28T09:57:02;2.60;98.20
4374;DHT22;2201;51.100;6.814;2023-01-28T09:59:33;2.70;98.20
4374;DHT22;2201;51.100;6.814;2023-01-28T10:02:11;2.70;98.20
4374;DHT22;2201;51.100;6.814;2023-01-28T10:04:56;2.80;98.20
4374;DHT22;2201;51.100;6.814;2023-01-28T10:07:33;2.80;98.20
4374;DHT22;2201;51.100;6.814;2023-01-28T10:10:07;2.90;98.20
4374;DHT22;2201;51.100;6.814;2023-01-28T10:12:52;2.90;98.20
4374;DHT22;2201;51.100;6.814;2023-01-28T10:15:42;2.90;98.20
4374;DHT22;2201;51.100;6.814;2023-01-28T10:18:15;2.90;98.20
4374;DHT22;2201;51.100;6.814;2023-01-28T10:20:48;2.90;98.20
4374;DHT22;2201;51.100;6.814;2023-01-28T10:23:30;2.90;98.20
4374;DHT22;2201;51.100;6.814;2023-01-28T10:26:17;2.90;98.20
4374;DHT22;2201;51.100;6.814;2023-01-28T10:28:51;2.90;98.20
4374;DHT22;2201;51.100;6.814;2023-01-28T10:31:22;2.80;98.20
4374;DHT22;2201;51.100;6.814;2023-01-28T10:33:50;2.90;98.20
4374;DHT22;2201;51.100;6.814;2023-01-28T10:36:18;3.00;98.20
4374;DHT22;2201;51.100;6.814;2023-01-28T10:38:46;3.10;98.20
4374;DHT22;2201;51.100;6.814;2023-01-28T10:41:19;3.20;98.20
4374;DHT22;2201;51.100;6.814;2023-01-28T10:43:49;3.20;98.20
4374;DHT22;2201;51.100;6.814;2023-01-28T10:46:18;3.20;98.20
4374;DHT22;2201;51.100;6.814;2023-01-28T10:48:54;3.10;98.20
4374;DHT22;2201;51.100;6.814;2023-01-28T10:51:31;3.10;98.20
4374;DHT22;2201;51.100;6.814;2023-01-28T10:53:59;3.10;98.20
4374;DHT22;2201;51.100;6.814;2023-01-28T10:56:30;3.10;98.20
4374;DHT22;2201;51.100;6.814;2023-01-28T10:59:04;3.10;98.20
4374;DHT22;2201;51.100;6.814;2023-01-28T11:01:42;3.00;98.20
4374;DHT22;2201;51.100;6.814;2023-01-28T11:04:18;3.00;98.20
4374;DHT22;2201;51.100;6.814;2023-01-28T11:06:55;3.00;98.20
4374;DHT22;2201;51.100;6.814;2023-01-28T11:09:51;3.10;98.20
4374;DHT22;2201;51.100;6.814;2023-01-28T11:12:28;3.10;98.20
4374;DHT22;2201;51.100;6.814;2023-01-28T11:15:19;3.10;98.20
4374;DHT22;2201;51.100;6.814;2023-01-28T11:17:56;3.20;98.20
4374;DHT22;2201;51.100;6.814;2023-01-28T11:20:40;3.20;98.20
4374;DHT22;2201;51.100;6.814;2023-01-28T11:23:49;3.30;98.20
4374;DHT22;2201;51.100;6.814;2023-01-28T11:26:49;3.30;98.20
4374;DHT22;2201;51.100;6.814;2023-01-28T11:29:52;3.50;98.20
4374;DHT22;2201;51.100;6.814;2023-01-28T11:32:25;3.50;98.20
4374;DHT22;2201;51.100;6.814;2023-01-28T11:34:55;3.50;98.20
4374;DHT22;2201;51.100;6.814;2023-01-28T11:37:51;3.40;98.20
4374;DHT22;2201;51.100;6.814;2023-01-28T11:40:30;3.30;98.20
4374;DHT22;2201;51.100;6.814;2023-01-28T11:43:21;3.20;98.20
4374;DHT22;2201;51.100;6.814;2023-01-28T11:46:54;3.20;98.20
4374;DHT22;2201;51.100;6.814;2023-01-28T11:49:17;3.20;98.20
4374;DHT22;2201;51.100;6.814;2023-01-28T11:52:03;3.10;98.20
4374;DHT22;2201;51.100;6.814;2023-01-28T11:54:46;3.10;98.20
4374;DHT22;2201;51.100;6.814;2023-01-28T11:57:30;3.00;98.20
4374;DHT22;2201;51.100;6.814;2023-01-28T12:03:54;3.00;98.20
4374;DHT22;2201;51.100;6.814;2023-01-28T12:06:54;3.00;98.20
4374;DHT22;2201;51.100;6.814;2023-01-28T12:09:33;3.00;98.20
4374;DHT22;2201;51.100;6.814;2023-01-28T12:15:16;3.10;98.20
4374;DHT22;2201;51.100;6.814;2023-01-28T12:17:58;3.00;98.20
4374;DHT22;2201;51.100;6.814;2023-01-28T12:20:55;3.10;98.20
4374;DHT22;2201;51.100;6.814;2023-01-28T12:29:46;3.20;98.20
4374;DHT22;2201;51.100;6.814;2023-01-28T12:32:42;3.10;98.20
4374;DHT22;2201;51.100;6.814;2023-01-28T12:38:42;3.10;98.20
4374;DHT22;2201;51.100;6.814;2023-01-28T12:41:21;3.10;98.20
4374;DHT22;2201;51.100;6.814;2023-01-28T12:44:19;3.10;98.20
4374;DHT22;2201;51.100;6.814;2023-01-28T12:47:14;3.10;98.20
4374;DHT22;2201;51.100;6.814;2023-01-28T12:49:51;3.20;98.20
4374;DHT22;2201;51.100;6.814;2023-01-28T12:52:27;3.10;98.20
4374;DHT22;2201;51.100;6.814;2023-01-28T12:55:02;3.10;98.20
4374;DHT22;2201;51.100;6.814;2023-01-28T12:57:35;3.10;98.20
4374;DHT22;2201;51.100;6.814;2023-01-28T13:00:27;3.20;98.20
4374;DHT22;2201;51.100;6.814;2023-01-28T13:03:04;3.20;98.20
4374;DHT22;2201;51.100;6.814;2023-01-28T13:05:40;3.40;98.20
4374;DHT22;2201;51.100;6.814;2023-01-28T13:08:14;3.50;98.20
4374;DHT22;2201;51.100;6.814;2023-01-28T13:10:44;3.60;98.20
4374;DHT22;2201;51.100;6.814;2023-01-28T13:13:17;3.40;98.20
4374;DHT22;2201;51.100;6.814;2023-01-28T13:15:47;3.50;98.20
4374;DHT22;2201;51.100;6.814;2023-01-28T13:18:45;3.60;98.20
4374;DHT22;2201;51.100;6.814;2023-01-28T13:21:28;3.70;98.20
4374;DHT22;2201;51.100;6.814;2023-01-28T13:24:21;3.80;98.20
4374;DHT22;2201;51.100;6.814;2023-01-28T13:26:50;4.00;98.00
4374;DHT22;2201;51.100;6.814;2023-01-28T13:29:27;4.00;96.90
4374;DHT22;2201;51.100;6.814;2023-01-28T13:31:58;3.90;97.70
4374;DHT22;2201;51.100;6.814;2023-01-28T13:34:33;3.90;97.00
4374;DHT22;2201;51.100;6.814;2023-01-28T13:37:06;4.00;98.20
4374;DHT22;2201;51.100;6.814;2023-01-28T13:39:35;4.10;98.20
4374;DHT22;2201;51.100;6.814;2023-01-28T13:42:21;4.10;98.20
4374;DHT22;2201;51.100;6.814;2023-01-28T13:44:50;4.10;98.20
4374;DHT22;2201;51.100;6.814;2023-01-28T13:47:30;4.00;98.20
4374;DHT22;2201;51.100;6.814;2023-01-28T13:50:02;3.80;98.20
4374;DHT22;2201;51.100;6.814;2023-01-28T13:52:33;3.70;98.20
4374;DHT22;2201;51.100;6.814;2023-01-28T13:55:12;3.60;98.20
4374;DHT22;2201;51.100;6.814;2023-01-28T13:58:09;3.60;98.20
4374;DHT22;2201;51.100;6.814;2023-01-28T14:01:05;3.60;98.20
4374;DHT22;2201;51.100;6.814;2023-01-28T14:04:34;3.60;98.20
4374;DHT22;2201;51.100;6.814;2023-01-28T14:07:16;3.70;98.20
4374;DHT22;2201;51.100;6.814;2023-01-28T14:16:04;3.60;98.20
4374;DHT22;2201;51.100;6.814;2023-01-28T14:18:38;3.60;98.20
4374;DHT22;2201;51.100;6.814;2023-01-28T14:21:11;3.60;98.20
4374;DHT22;2201;51.100;6.814;2023-01-28T14:23:44;3.60;98.20
4374;DHT22;2201;51.100;6.814;2023-01-28T14:26:25;3.60;98.20
4374;DHT22;2201;51.100;6.814;2023-01-28T14:29:07;3.50;98.20
4374;DHT22;2201;51.100;6.814;2023-01-28T14:31:38;3.50;98.20
4374;DHT22;2201;51.100;6.814;2023-01-28T14:34:11;3.50;98.20
4374;DHT22;2201;51.100;6.814;2023-01-28T14:36:44;3.50;98.20
4374;DHT22;2201;51.100;6.814;2023-01-28T14:39:17;3.40;98.20
4374;DHT22;2201;51.100;6.814;2023-01-28T14:41:48;3.30;98.20
4374;DHT22;2201;51.100;6.814;2023-01-28T14:44:26;3.20;98.20
4374;DHT22;2201;51.100;6.814;2023-01-28T14:47:11;3.10;98.20
4374;DHT22;2201;51.100;6.814;2023-01-28T14:49:54;3.00;98.20
4374;DHT22;2201;51.100;6.814;2023-01-28T14:52:41;2.90;98.20
4374;DHT22;2201;51.100;6.814;2023-01-28T14:55:32;2.90;98.20
4374;DHT22;2201;51.100;6.814;2023-01-28T14:58:02;2.80;98.20
4374;DHT22;2201;51.100;6.814;2023-01-28T15:00:33;2.80;98.20
4374;DHT22;2201;51.100;6.814;2023-01-28T15:03:16;2.70;98.20
4374;DHT22;2201;51.100;6.814;2023-01-28T15:06:00;2.70;98.20
4374;DHT22;2201;51.100;6.814;2023-01-28T15:08:28;2.60;98.20
4374;DHT22;2201;51.100;6.814;2023-01-28T15:11:15;2.50;98.20
4374;DHT22;2201;51.100;6.814;2023-01-28T15:13:50;2.40;98.20
4374;DHT22;2201;51.100;6.814;2023-01-28T15:16:20;2.40;98.20
4374;DHT22;2201;51.100;6.814;2023-01-28T15:18:50;2.30;98.20
4374;DHT22;2201;51.100;6.814;2023-01-28T15:21:21;2.30;98.20
4374;DHT22;2201;51.100;6.814;2023-01-28T15:26:46;2.20;98.20
4374;DHT22;2201;51.100;6.814;2023-01-28T15:29:23;2.20;98.20
4374;DHT22;2201;51.100;6.814;2023-01-28T15:31:57;2.10;98.20
4374;DHT22;2201;51.100;6.814;2023-01-28T15:34:31;2.10;98.20
4374;DHT22;2201;51.100;6.814;2023-01-28T15:37:12;2.00;98.20
4374;DHT22;2201;51.100;6.814;2023-01-28T15:40:02;2.00;98.20
4374;DHT22;2201;51.100;6.814;2023-01-28T15:42:38;1.90;98.20
4374;DHT22;2201;51.100;6.814;2023-01-28T15:45:14;1.90;98.20
4374;DHT22;2201;51.100;6.814;2023-01-28T15:47:42;1.80;98.20
4374;DHT22;2201;51.100;6.814;2023-01-28T15:50:17;1.80;98.20
4374;DHT22;2201;51.100;6.814;2023-01-28T15:52:45;1.70;98.20
4374;DHT22;2201;51.100;6.814;2023-01-28T15:55:34;1.70;98.20
4374;DHT22;2201;51.100;6.814;2023-01-28T15:58:27;1.60;98.20
4374;DHT22;2201;51.100;6.814;2023-01-28T16:01:18;1.60;98.20
4374;DHT22;2201;51.100;6.814;2023-01-28T16:04:01;1.50;98.20
4374;DHT22;2201;51.100;6.814;2023-01-28T16:06:35;1.40;98.20
4374;DHT22;2201;51.100;6.814;2023-01-28T16:09:05;1.40;98.20
4374;DHT22;2201;51.100;6.814;2023-01-28T16:11:35;1.30;98.20
4374;DHT22;2201;51.100;6.814;2023-01-28T16:14:14;1.20;98.20
4374;DHT22;2201;51.100;6.814;2023-01-28T16:16:49;1.20;98.20
4374;DHT22;2201;51.100;6.814;2023-01-28T16:19:30;1.10;98.20
4374;DHT22;2201;51.100;6.814;2023-01-28T16:22:00;1.00;98.20
4374;DHT22;2201;51.100;6.814;2023-01-28T16:24:29;1.00;98.20
4374;DHT22;2201;51.100;6.814;2023-01-28T16:26:58;0.90;98.20
4374;DHT22;2201;51.100;6.814;2023-01-28T16:29:30;0.80;98.20
4374;DHT22;2201;51.100;6.814;2023-01-28T16:31:58;0.70;98.20
4374;DHT22;2201;51.100;6.814;2023-01-28T16:34:25;0.70;98.20
4374;DHT22;2201;51.100;6.814;2023-01-28T16:36:53;0.60;98.20
4374;DHT22;2201;51.100;6.814;2023-01-28T16:39:24;0.60;98.20
4374;DHT22;2201;51.100;6.814;2023-01-28T16:41:51;0.60;98.20
4374;DHT22;2201;51.100;6.814;2023-01-28T16:44:19;0.60;98.20
4374;DHT22;2201;51.100;6.814;2023-01-28T16:46:46;0.60;98.20
4374;DHT22;2201;51.100;6.814;2023-01-28T16:49:13;0.60;98.20
4374;DHT22;2201;51.100;6.814;2023-01-28T16:51:44;0.60;98.20
4374;DHT22;2201;51.100;6.814;2023-01-28T16:54:27;0.50;98.20
4374;DHT22;2201;51.100;6.814;2023-01-28T16:56:55;0.50;98.20
4374;DHT22;2201;51.100;6.814;2023-01-28T16:59:22;0.60;98.20
4374;DHT22;2201;51.100;6.814;2023-01-28T17:01:50;0.60;98.20
4374;DHT22;2201;51.100;6.814;2023-01-28T17:04:16;0.50;98.20
4374;DHT22;2201;51.100;6.814;2023-01-28T17:06:44;0.50;98.20
4374;DHT22;2201;51.100;6.814;2023-01-28T17:09:13;0.50;98.20
4374;DHT22;2201;51.100;6.814;2023-01-28T17:11:44;0.50;98.20
4374;DHT22;2201;51.100;6.814;2023-01-28T17:14:12;0.40;98.20
4374;DHT22;2201;51.100;6.814;2023-01-28T17:16:40;0.40;98.20
4374;DHT22;2201;51.100;6.814;2023-01-28T17:19:07;0.40;98.20
4374;DHT22;2201;51.100;6.814;2023-01-28T17:21:34;0.30;98.20
4374;DHT22;2201;51.100;6.814;2023-01-28T17:24:03;0.30;98.20
4374;DHT22;2201;51.100;6.814;2023-01-28T17:26:30;0.30;98.20
4374;DHT22;2201;51.100;6.814;2023-01-28T17:29:00;0.20;98.20
4374;DHT22;2201;51.100;6.814;2023-01-28T17:31:27;0.10;98.20
4374;DHT22;2201;51.100;6.814;2023-01-28T17:33:55;0.10;98.20
4374;DHT22;2201;51.100;6.814;2023-01-28T17:36:23;0.10;98.20
4374;DHT22;2201;51.100;6.814;2023-01-28T17:38:59;0.00;98.20
4374;DHT22;2201;51.100;6.814;2023-01-28T17:41:28;0.00;98.20
4374;DHT22;2201;51.100;6.814;2023-01-28T17:43:56;0.00;98.20
4374;DHT22;2201;51.100;6.814;2023-01-28T17:46:25;0.00;98.20
4374;DHT22;2201;51.100;6.814;2023-01-28T17:48:53;-0.10;98.20
4374;DHT22;2201;51.100;6.814;2023-01-28T17:51:20;-0.10;98.20
4374;DHT22;2201;51.100;6.814;2023-01-28T17:53:49;-0.10;98.20
4374;DHT22;2201;51.100;6.814;2023-01-28T17:56:17;-0.20;98.20
4374;DHT22;2201;51.100;6.814;2023-01-28T17:58:48;-0.20;98.20
4374;DHT22;2201;51.100;6.814;2023-01-28T18:01:16;-0.20;98.20
4374;DHT22;2201;51.100;6.814;2023-01-28T18:03:45;-0.30;98.20
4374;DHT22;2201;51.100;6.814;2023-01-28T18:06:13;-0.30;98.20
4374;DHT22;2201;51.100;6.814;2023-01-28T18:08:40;-0.30;98.20
4374;DHT22;2201;51.100;6.814;2023-01-28T18:11:08;-0.40;98.20
4374;DHT22;2201;51.100;6.814;2023-01-28T18:13:36;-0.40;98.20
4374;DHT22;2201;51.100;6.814;2023-01-28T18:16:05;-0.40;98.20
4374;DHT22;2201;51.100;6.814;2023-01-28T18:18:33;-0.50;98.20
4374;DHT22;2201;51.100;6.814;2023-01-28T18:21:03;-0.50;98.20
4374;DHT22;2201;51.100;6.814;2023-01-28T18:23:31;-0.60;98.20
4374;DHT22;2201;51.100;6.814;2023-01-28T18:26:00;-0.60;98.20
4374;DHT22;2201;51.100;6.814;2023-01-28T18:28:29;-0.60;98.20
4374;DHT22;2201;51.100;6.814;2023-01-28T18:31:03;-0.60;98.20
4374;DHT22;2201;51.100;6.814;2023-01-28T18:33:31;-0.70;98.20
4374;DHT22;2201;51.100;6.814;2023-01-28T18:36:03;-0.70;98.20
4374;DHT22;2201;51.100;6.814;2023-01-28T18:38:30;-0.70;98.20
4374;DHT22;2201;51.100;6.814;2023-01-28T18:40:59;-0.80;98.20
4374;DHT22;2201;51.100;6.814;2023-01-28T18:43:26;-0.80;98.20
4374;DHT22;2201;51.100;6.814;2023-01-28T18:45:57;-0.80;98.20
4374;DHT22;2201;51.100;6.814;2023-01-28T18:48:25;-0.80;98.20
4374;DHT22;2201;51.100;6.814;2023-01-28T18:50:54;-0.80;98.20
4374;DHT22;2201;51.100;6.814;2023-01-28T18:53:24;-0.90;98.20
4374;DHT22;2201;51.100;6.814;2023-01-28T18:55:52;-0.90;98.20
4374;DHT22;2201;51.100;6.814;2023-01-28T18:58:20;-0.90;98.20
4374;DHT22;2201;51.100;6.814;2023-01-28T19:00:47;-1.00;98.20
4374;DHT22;2201;51.100;6.814;2023-01-28T19:03:15;-1.00;98.20
4374;DHT22;2201;51.100;6.814;2023-01-28T19:05:42;-1.00;98.20
4374;DHT22;2201;51.100;6.814;2023-01-28T19:08:10;-1.00;98.20
4374;DHT22;2201;51.100;6.814;2023-01-28T19:10:39;-1.10;98.20
4374;DHT22;2201;51.100;6.814;2023-01-28T19:13:07;-1.10;98.20
4374;DHT22;2201;51.100;6.814;2023-01-28T19:15:35;-1.10;98.20
4374;DHT22;2201;51.100;6.814;2023-01-28T19:18:03;-1.20;98.20
4374;DHT22;2201;51.100;6.814;2023-01-28T19:20:30;-1.20;98.20
4374;DHT22;2201;51.100;6.814;2023-01-28T19:22:59;-1.20;98.20
4374;DHT22;2201;51.100;6.814;2023-01-28T19:25:27;-1.20;98.20
4374;DHT22;2201;51.100;6.814;2023-01-28T19:27:57;-1.30;98.20
4374;DHT22;2201;51.100;6.814;2023-01-28T19:30:26;-1.30;98.20
4374;DHT22;2201;51.100;6.814;2023-01-28T19:32:54;-1.30;98.20
4374;DHT22;2201;51.100;6.814;2023-01-28T19:35:22;-1.30;98.20
4374;DHT22;2201;51.100;6.814;2023-01-28T19:37:49;-1.30;98.20
4374;DHT22;2201;51.100;6.814;2023-01-28T19:40:17;-1.30;98.20
4374;DHT22;2201;51.100;6.814;2023-01-28T19:42:45;-1.30;98.20